Terminal Aerodrome Forecast
Issued by NWS Tallahassee, FL

Current Version | Previous Version | Text Only | Print | Product List | Glossary On
Versions: 1 2 3 4 5 6 7 8 9 10 11 12 13 14 15 16 17 18 19 20 21 22 23 24
000
FTUS42 KTAE 021606 AAA
TAFTLH
TAF AMD
KTLH 021606Z 0216/0312 02010G16KT P6SM BKN015
     FM021700 36011KT P6SM SCT025
     FM021800 36011KT P6SM BKN040
     FM022100 36013KT P6SM VCTS SCT025CB BKN040
     FM030100 29003KT P6SM SCT040 BKN100=

USA.gov is the U.S. government's official web portal to all federal, state and local government web resources and services.